sensor_id;sensor_type;location;lat;lon;timestamp;pressure;altitude;pressure_sealevel;temperature;humidity
48792;BME280;34587;48.816;9.420;2023-09-19T04:15:27;98524.66;;;16.75;100.00
48792;BME280;34587;48.816;9.420;2023-09-19T04:17:52;98519.34;;;16.77;100.00
48792;BME280;34587;48.816;9.420;2023-09-19T04:20:18;98528.63;;;16.84;100.00
48792;BME280;34587;48.816;9.420;2023-09-19T04:22:45;98527.63;;;16.86;100.00
48792;BME280;34587;48.816;9.420;2023-09-19T04:25:10;98530.75;;;16.76;100.00
48792;BME280;34587;48.816;9.420;2023-09-19T04:27:35;98526.56;;;16.72;100.00
48792;BME280;34587;48.816;9.420;2023-09-19T04:30:01;98530.88;;;16.73;100.00
48792;BME280;34587;48.816;9.420;2023-09-19T04:32:34;98529.75;;;16.78;100.00
48792;BME280;34587;48.816;9.420;2023-09-19T04:35:01;98536.97;;;16.73;100.00
48792;BME280;34587;48.816;9.420;2023-09-19T04:37:30;98542.19;;;16.54;100.00
48792;BME280;34587;48.816;9.420;2023-09-19T04:39:55;98542.59;;;16.45;100.00
48792;BME280;34587;48.816;9.420;2023-09-19T04:42:21;98548.69;;;16.45;100.00
48792;BME280;34587;48.816;9.420;2023-09-19T04:44:46;98553.31;;;16.39;100.00
48792;BME280;34587;48.816;9.420;2023-09-19T04:47:14;98549.25;;;16.52;100.00
48792;BME280;34587;48.816;9.420;2023-09-19T04:49:40;98554.00;;;16.44;100.00
48792;BME280;34587;48.816;9.420;2023-09-19T04:52:05;98552.13;;;16.46;100.00
48792;BME280;34587;48.816;9.420;2023-09-19T04:54:30;98554.47;;;16.52;100.00
48792;BME280;34587;48.816;9.420;2023-09-19T04:56:56;98552.78;;;16.51;100.00
48792;BME280;34587;48.816;9.420;2023-09-19T04:59:21;98557.88;;;16.54;100.00
48792;BME280;34587;48.816;9.420;2023-09-19T05:01:46;98567.25;;;16.58;100.00
48792;BME280;34587;48.816;9.420;2023-09-19T05:04:12;98563.66;;;16.61;100.00
48792;BME280;34587;48.816;9.420;2023-09-19T05:06:37;98565.69;;;16.75;100.00
48792;BME280;34587;48.816;9.420;2023-09-19T05:09:02;98568.22;;;16.76;100.00
48792;BME280;34587;48.816;9.420;2023-09-19T05:11:30;98564.97;;;16.90;100.00
48792;BME280;34587;48.816;9.420;2023-09-19T05:13:55;98558.75;;;16.92;100.00
48792;BME280;34587;48.816;9.420;2023-09-19T05:16:21;98579.09;;;16.86;100.00
48792;BME280;34587;48.816;9.420;2023-09-19T05:18:46;98582.66;;;16.85;100.00
48792;BME280;34587;48.816;9.420;2023-09-19T05:21:11;98593.94;;;16.66;100.00
48792;BME280;34587;48.816;9.420;2023-09-19T05:23:37;98591.81;;;16.56;100.00
48792;BME280;34587;48.816;9.420;2023-09-19T05:26:02;98588.53;;;16.32;100.00
48792;BME280;34587;48.816;9.420;2023-09-19T05:28:29;98602.50;;;16.31;100.00
48792;BME280;34587;48.816;9.420;2023-09-19T05:30:54;98603.69;;;16.03;100.00
48792;BME280;34587;48.816;9.420;2023-09-19T05:33:20;98613.31;;;16.03;100.00
48792;BME280;34587;48.816;9.420;2023-09-19T05:35:47;98605.56;;;16.01;100.00
48792;BME280;34587;48.816;9.420;2023-09-19T05:38:13;98607.63;;;15.93;100.00
48792;BME280;34587;48.816;9.420;2023-09-19T05:40:39;98608.09;;;16.03;100.00
48792;BME280;34587;48.816;9.420;2023-09-19T05:43:07;98604.25;;;15.91;100.00
48792;BME280;34587;48.816;9.420;2023-09-19T05:45:33;98611.53;;;15.83;100.00
48792;BME280;34587;48.816;9.420;2023-09-19T05:48:11;98616.78;;;15.83;100.00
48792;BME280;34587;48.816;9.420;2023-09-19T05:50:37;98617.88;;;15.77;100.00
48792;BME280;34587;48.816;9.420;2023-09-19T05:53:02;98622.00;;;15.83;100.00
48792;BME280;34587;48.816;9.420;2023-09-19T05:55:29;98629.94;;;15.80;100.00
48792;BME280;34587;48.816;9.420;2023-09-19T05:57:55;98639.63;;;15.78;100.00
48792;BME280;34587;48.816;9.420;2023-09-19T06:00:21;98648.81;;;15.66;100.00
48792;BME280;34587;48.816;9.420;2023-09-19T06:02:52;98656.41;;;15.72;100.00
48792;BME280;34587;48.816;9.420;2023-09-19T06:05:18;98662.34;;;15.76;100.00
48792;BME280;34587;48.816;9.420;2023-09-19T06:07:44;98671.47;;;15.65;100.00
48792;BME280;34587;48.816;9.420;2023-09-19T06:10:09;98681.28;;;15.59;100.00
48792;BME280;34587;48.816;9.420;2023-09-19T06:12:44;98676.91;;;15.59;100.00
48792;BME280;34587;48.816;9.420;2023-09-19T06:15:11;98677.38;;;15.47;100.00
48792;BME280;34587;48.816;9.420;2023-09-19T06:17:54;98691.31;;;15.48;100.00
48792;BME280;34587;48.816;9.420;2023-09-19T06:20:24;98695.38;;;15.33;100.00
48792;BME280;34587;48.816;9.420;2023-09-19T06:22:51;98693.22;;;15.21;100.00
48792;BME280;34587;48.816;9.420;2023-09-19T06:25:17;98704.34;;;15.02;100.00
48792;BME280;34587;48.816;9.420;2023-09-19T06:27:46;98705.81;;;14.86;100.00
48792;BME280;34587;48.816;9.420;2023-09-19T06:30:11;98711.97;;;14.85;100.00
48792;BME280;34587;48.816;9.420;2023-09-19T06:32:37;98709.31;;;14.61;100.00
48792;BME280;34587;48.816;9.420;2023-09-19T06:35:03;98705.09;;;14.57;100.00
48792;BME280;34587;48.816;9.420;2023-09-19T06:37:29;98710.59;;;14.50;100.00
48792;BME280;34587;48.816;9.420;2023-09-19T06:39:54;98700.91;;;14.53;100.00
48792;BME280;34587;48.816;9.420;2023-09-19T06:42:20;98700.91;;;14.53;100.00
48792;BME280;34587;48.816;9.420;2023-09-19T06:44:47;98705.22;;;14.54;100.00
48792;BME280;34587;48.816;9.420;2023-09-19T06:47:13;98710.09;;;14.63;100.00
48792;BME280;34587;48.816;9.420;2023-09-19T06:49:39;98709.88;;;14.70;100.00
48792;BME280;34587;48.816;9.420;2023-09-19T06:52:05;98702.38;;;14.85;100.00
48792;BME280;34587;48.816;9.420;2023-09-19T06:54:30;98709.84;;;14.95;100.00
48792;BME280;34587;48.816;9.420;2023-09-19T06:56:57;98705.75;;;15.11;100.00
48792;BME280;34587;48.816;9.420;2023-09-19T06:59:24;98716.25;;;15.33;100.00
48792;BME280;34587;48.816;9.420;2023-09-19T07:01:49;98715.09;;;15.40;100.00
48792;BME280;34587;48.816;9.420;2023-09-19T07:04:15;98710.09;;;15.57;100.00
48792;BME280;34587;48.816;9.420;2023-09-19T07:06:42;98707.66;;;15.75;100.00
48792;BME280;34587;48.816;9.420;2023-09-19T07:09:08;98703.75;;;16.07;100.00
48792;BME280;34587;48.816;9.420;2023-09-19T07:11:33;98710.63;;;16.30;100.00
48792;BME280;34587;48.816;9.420;2023-09-19T07:13:59;98707.94;;;16.52;100.00
48792;BME280;34587;48.816;9.420;2023-09-19T07:16:24;98714.88;;;16.93;100.00
48792;BME280;34587;48.816;9.420;2023-09-19T07:18:55;98710.97;;;17.21;100.00
48792;BME280;34587;48.816;9.420;2023-09-19T07:21:22;98711.47;;;17.10;100.00
48792;BME280;34587;48.816;9.420;2023-09-19T07:23:47;98712.88;;;18.28;100.00
48792;BME280;34587;48.816;9.420;2023-09-19T07:26:12;98712.56;;;19.17;100.00
48792;BME280;34587;48.816;9.420;2023-09-19T07:28:38;98716.09;;;19.49;100.00
48792;BME280;34587;48.816;9.420;2023-09-19T07:31:03;98718.53;;;18.88;100.00
48792;BME280;34587;48.816;9.420;2023-09-19T07:33:30;98714.63;;;18.44;100.00
48792;BME280;34587;48.816;9.420;2023-09-19T07:35:56;98718.25;;;18.42;100.00
48792;BME280;34587;48.816;9.420;2023-09-19T07:38:21;98717.03;;;18.32;100.00
48792;BME280;34587;48.816;9.420;2023-09-19T07:40:48;98706.16;;;18.39;100.00
48792;BME280;34587;48.816;9.420;2023-09-19T07:43:13;98717.63;;;18.37;100.00
48792;BME280;34587;48.816;9.420;2023-09-19T07:45:38;98724.75;;;18.52;100.00
48792;BME280;34587;48.816;9.420;2023-09-19T07:48:04;98725.19;;;18.78;100.00
48792;BME280;34587;48.816;9.420;2023-09-19T07:50:33;98726.06;;;18.78;100.00
48792;BME280;34587;48.816;9.420;2023-09-19T07:53:02;98731.00;;;19.00;100.00
48792;BME280;34587;48.816;9.420;2023-09-19T07:55:30;98728.28;;;18.86;100.00
48792;BME280;34587;48.816;9.420;2023-09-19T07:57:55;98725.50;;;18.37;100.00
48792;BME280;34587;48.816;9.420;2023-09-19T08:00:21;98731.44;;;18.40;100.00
48792;BME280;34587;48.816;9.420;2023-09-19T08:02:46;98730.34;;;18.96;100.00
48792;BME280;34587;48.816;9.420;2023-09-19T08:05:13;98722.09;;;19.51;100.00
48792;BME280;34587;48.816;9.420;2023-09-19T08:07:43;98732.94;;;20.09;100.00
48792;BME280;34587;48.816;9.420;2023-09-19T08:10:09;98736.97;;;20.14;100.00
48792;BME280;34587;48.816;9.420;2023-09-19T08:12:45;98733.75;;;21.55;100.00
48792;BME280;34587;48.816;9.420;2023-09-19T08:15:14;98734.34;;;22.54;100.00
48792;BME280;34587;48.816;9.420;2023-09-19T08:17:40;98731.72;;;22.14;100.00
48792;BME280;34587;48.816;9.420;2023-09-19T08:20:07;98745.03;;;21.71;100.00
48792;BME280;34587;48.816;9.420;2023-09-19T08:22:32;98746.88;;;23.03;93.11
48792;BME280;34587;48.816;9.420;2023-09-19T08:24:58;98747.09;;;22.35;93.74
48792;BME280;34587;48.816;9.420;2023-09-19T08:27:23;98741.25;;;23.57;83.93
48792;BME280;34587;48.816;9.420;2023-09-19T08:29:52;98739.06;;;24.82;75.89
48792;BME280;34587;48.816;9.420;2023-09-19T08:32:17;98741.38;;;25.43;71.87
48792;BME280;34587;48.816;9.420;2023-09-19T08:34:45;98738.16;;;27.71;59.35
48792;BME280;34587;48.816;9.420;2023-09-19T08:37:10;98733.78;;;27.70;56.02
48792;BME280;34587;48.816;9.420;2023-09-19T08:39:35;98744.97;;;25.86;63.85
48792;BME280;34587;48.816;9.420;2023-09-19T08:42:02;98742.38;;;25.30;63.72
48792;BME280;34587;48.816;9.420;2023-09-19T08:44:28;98743.06;;;24.41;70.11
48792;BME280;34587;48.816;9.420;2023-09-19T08:47:14;98742.94;;;23.58;74.34
48792;BME280;34587;48.816;9.420;2023-09-19T08:50:03;98740.09;;;26.03;64.79
48792;BME280;34587;48.816;9.420;2023-09-19T08:52:42;98754.34;;;26.02;59.99
48792;BME280;34587;48.816;9.420;2023-09-19T08:55:12;98757.44;;;26.71;57.62
48792;BME280;34587;48.816;9.420;2023-09-19T08:57:38;98766.41;;;24.36;66.68
48792;BME280;34587;48.816;9.420;2023-09-19T09:00:08;98779.44;;;21.97;77.91
48792;BME280;34587;48.816;9.420;2023-09-19T09:02:40;98775.66;;;21.17;92.80
48792;BME280;34587;48.816;9.420;2023-09-19T09:05:06;98784.63;;;20.40;100.00
48792;BME280;34587;48.816;9.420;2023-09-19T09:07:32;98772.13;;;20.13;100.00
48792;BME280;34587;48.816;9.420;2023-09-19T09:10:00;98781.13;;;20.09;100.00
48792;BME280;34587;48.816;9.420;2023-09-19T09:12:25;98779.22;;;20.11;100.00
48792;BME280;34587;48.816;9.420;2023-09-19T09:14:51;98765.25;;;20.57;100.00
48792;BME280;34587;48.816;9.420;2023-09-19T09:17:17;98770.50;;;21.29;97.83
48792;BME280;34587;48.816;9.420;2023-09-19T09:19:45;98774.44;;;21.22;96.41
48792;BME280;34587;48.816;9.420;2023-09-19T09:22:11;98774.06;;;21.28;93.72
48792;BME280;34587;48.816;9.420;2023-09-19T09:24:37;98769.91;;;21.67;88.70
48792;BME280;34587;48.816;9.420;2023-09-19T09:27:15;98769.16;;;21.22;92.71
48792;BME280;34587;48.816;9.420;2023-09-19T09:29:43;98769.22;;;20.78;93.34
48792;BME280;34587;48.816;9.420;2023-09-19T09:34:49;98773.44;;;20.66;92.83
48792;BME280;34587;48.816;9.420;2023-09-19T09:37:16;98772.94;;;20.90;96.05
48792;BME280;34587;48.816;9.420;2023-09-19T09:39:56;98761.19;;;23.50;76.40
48792;BME280;34587;48.816;9.420;2023-09-19T09:42:35;98768.06;;;22.23;74.73
48792;BME280;34587;48.816;9.420;2023-09-19T09:45:29;98756.94;;;24.56;66.72
48792;BME280;34587;48.816;9.420;2023-09-19T09:48:01;98764.97;;;22.44;65.87
48792;BME280;34587;48.816;9.420;2023-09-19T09:52:56;98763.50;;;24.74;59.80
48792;BME280;34587;48.816;9.420;2023-09-19T09:56:04;98760.09;;;27.13;50.61
48792;BME280;34587;48.816;9.420;2023-09-19T09:58:33;98756.47;;;26.72;49.12
48792;BME280;34587;48.816;9.420;2023-09-19T10:01:00;98759.50;;;26.47;48.15
48792;BME280;34587;48.816;9.420;2023-09-19T10:03:38;98754.25;;;28.19;45.02
48792;BME280;34587;48.816;9.420;2023-09-19T10:06:12;98751.44;;;28.30;41.29
48792;BME280;34587;48.816;9.420;2023-09-19T10:09:02;98758.66;;;26.46;44.90
48792;BME280;34587;48.816;9.420;2023-09-19T10:11:46;98753.28;;;27.70;42.58
48792;BME280;34587;48.816;9.420;2023-09-19T10:14:16;98747.09;;;26.36;42.70
48792;BME280;34587;48.816;9.420;2023-09-19T10:16:47;98747.13;;;25.93;45.15
48792;BME280;34587;48.816;9.420;2023-09-19T10:19:30;98752.22;;;25.62;46.83
48792;BME280;34587;48.816;9.420;2023-09-19T10:21:59;98755.75;;;25.51;46.94
48792;BME280;34587;48.816;9.420;2023-09-19T10:24:26;98742.03;;;27.16;44.30
48792;BME280;34587;48.816;9.420;2023-09-19T10:26:53;98741.00;;;27.88;41.64
48792;BME280;34587;48.816;9.420;2023-09-19T10:29:21;98738.09;;;28.30;41.49
48792;BME280;34587;48.816;9.420;2023-09-19T10:31:47;98738.03;;;28.88;39.76
48792;BME280;34587;48.816;9.420;2023-09-19T10:34:17;98737.25;;;28.30;39.79
48792;BME280;34587;48.816;9.420;2023-09-19T10:36:45;98739.78;;;28.31;41.90
48792;BME280;34587;48.816;9.420;2023-09-19T10:39:14;98738.31;;;30.15;38.88
48792;BME280;34587;48.816;9.420;2023-09-19T10:41:49;98746.19;;;30.07;38.62
48792;BME280;34587;48.816;9.420;2023-09-19T10:44:21;98741.47;;;28.32;39.38
48792;BME280;34587;48.816;9.420;2023-09-19T10:46:47;98752.25;;;26.90;42.56
48792;BME280;34587;48.816;9.420;2023-09-19T10:49:13;98750.09;;;29.39;39.08
48792;BME280;34587;48.816;9.420;2023-09-19T10:51:41;98743.00;;;30.57;37.48
48792;BME280;34587;48.816;9.420;2023-09-19T10:54:12;98744.88;;;28.34;39.22
48792;BME280;34587;48.816;9.420;2023-09-19T10:56:46;98758.03;;;27.26;42.18
48792;BME280;34587;48.816;9.420;2023-09-19T10:59:21;98750.44;;;26.06;44.74
48792;BME280;34587;48.816;9.420;2023-09-19T11:01:56;98751.47;;;25.94;47.06
48792;BME280;34587;48.816;9.420;2023-09-19T11:04:30;98754.94;;;26.05;44.90
48792;BME280;34587;48.816;9.420;2023-09-19T11:07:09;98757.63;;;25.04;48.70
48792;BME280;34587;48.816;9.420;2023-09-19T11:09:53;98755.22;;;23.59;52.13
48792;BME280;34587;48.816;9.420;2023-09-19T11:15:07;98738.97;;;26.70;44.69
48792;BME280;34587;48.816;9.420;2023-09-19T11:17:42;98738.00;;;26.50;45.05
48792;BME280;34587;48.816;9.420;2023-09-19T11:30:48;98718.84;;;28.75;37.84
48792;BME280;34587;48.816;9.420;2023-09-19T11:36:04;98713.41;;;29.41;37.77
48792;BME280;34587;48.816;9.420;2023-09-19T11:43:51;98714.66;;;26.74;42.10
48792;BME280;34587;48.816;9.420;2023-09-19T11:46:17;98702.88;;;27.78;40.02
48792;BME280;34587;48.816;9.420;2023-09-19T11:48:47;98705.00;;;28.42;39.73
48792;BME280;34587;48.816;9.420;2023-09-19T11:51:16;98712.81;;;28.73;40.16
48792;BME280;34587;48.816;9.420;2023-09-19T11:53:47;98699.38;;;27.87;38.71
48792;BME280;34587;48.816;9.420;2023-09-19T11:56:15;98706.91;;;28.79;38.27
48792;BME280;34587;48.816;9.420;2023-09-19T11:58:43;98703.03;;;28.15;37.76
48792;BME280;34587;48.816;9.420;2023-09-19T12:01:12;98704.13;;;27.24;40.26
48792;BME280;34587;48.816;9.420;2023-09-19T12:03:42;98713.97;;;25.87;41.88
48792;BME280;34587;48.816;9.420;2023-09-19T12:06:14;98713.63;;;25.69;43.62
48792;BME280;34587;48.816;9.420;2023-09-19T12:08:40;98709.78;;;24.02;46.34
48792;BME280;34587;48.816;9.420;2023-09-19T12:11:11;98706.59;;;23.85;47.81
48792;BME280;34587;48.816;9.420;2023-09-19T12:13:41;98699.75;;;24.18;47.55
48792;BME280;34587;48.816;9.420;2023-09-19T12:16:14;98695.50;;;23.80;48.39
48792;BME280;34587;48.816;9.420;2023-09-19T12:18:43;98700.84;;;23.92;48.97
48792;BME280;34587;48.816;9.420;2023-09-19T12:21:27;98690.28;;;24.03;50.46
48792;BME280;34587;48.816;9.420;2023-09-19T12:24:07;98690.75;;;23.97;48.05
48792;BME280;34587;48.816;9.420;2023-09-19T12:26:43;98701.84;;;24.02;49.56
48792;BME280;34587;48.816;9.420;2023-09-19T12:29:16;98689.03;;;23.84;49.39
48792;BME280;34587;48.816;9.420;2023-09-19T12:31:54;98696.00;;;23.85;50.18
48792;BME280;34587;48.816;9.420;2023-09-19T12:34:32;98680.63;;;23.91;50.48
48792;BME280;34587;48.816;9.420;2023-09-19T12:39:44;98679.56;;;24.28;49.73
48792;BME280;34587;48.816;9.420;2023-09-19T12:42:15;98681.34;;;24.52;49.12
48792;BME280;34587;48.816;9.420;2023-09-19T12:44:42;98675.47;;;24.35;49.00
48792;BME280;34587;48.816;9.420;2023-09-19T12:47:13;98682.16;;;24.17;50.02
48792;BME280;34587;48.816;9.420;2023-09-19T12:50:12;98679.31;;;24.31;50.61
48792;BME280;34587;48.816;9.420;2023-09-19T12:52:52;98672.88;;;24.11;50.83
48792;BME280;34587;48.816;9.420;2023-09-19T12:58:15;98670.59;;;24.42;51.67
48792;BME280;34587;48.816;9.420;2023-09-19T13:00:42;98670.03;;;24.26;49.41
48792;BME280;34587;48.816;9.420;2023-09-19T13:08:30;98666.94;;;23.97;51.54
48792;BME280;34587;48.816;9.420;2023-09-19T13:11:17;98665.13;;;24.32;52.58
48792;BME280;34587;48.816;9.420;2023-09-19T13:14:12;98661.50;;;24.33;51.07
48792;BME280;34587;48.816;9.420;2023-09-19T13:16:33;98656.97;;;23.76;51.54
48792;BME280;34587;48.816;9.420;2023-09-19T13:18:58;98655.22;;;23.64;52.69
48792;BME280;34587;48.816;9.420;2023-09-19T13:21:31;98658.19;;;24.54;50.82
48792;BME280;34587;48.816;9.420;2023-09-19T13:24:24;98643.94;;;23.97;50.03
48792;BME280;34587;48.816;9.420;2023-09-19T13:26:53;98642.22;;;24.20;49.91
48792;BME280;34587;48.816;9.420;2023-09-19T13:29:18;98654.84;;;24.52;49.19
48792;BME280;34587;48.816;9.420;2023-09-19T13:31:50;98646.09;;;23.92;50.20
48792;BME280;34587;48.816;9.420;2023-09-19T13:34:16;98643.09;;;23.97;50.16
48792;BME280;34587;48.816;9.420;2023-09-19T13:36:42;98638.59;;;24.21;50.91
48792;BME280;34587;48.816;9.420;2023-09-19T13:39:08;98629.06;;;24.65;50.97
48792;BME280;34587;48.816;9.420;2023-09-19T13:41:35;98629.66;;;24.80;49.58
48792;BME280;34587;48.816;9.420;2023-09-19T13:44:04;98634.63;;;24.62;49.00
48792;BME280;34587;48.816;9.420;2023-09-19T13:46:30;98628.13;;;24.20;49.90
48792;BME280;34587;48.816;9.420;2023-09-19T13:49:00;98634.34;;;24.43;49.39
48792;BME280;34587;48.816;9.420;2023-09-19T13:51:28;98624.63;;;24.08;50.21
48792;BME280;34587;48.816;9.420;2023-09-19T13:53:55;98615.44;;;24.01;49.02
48792;BME280;34587;48.816;9.420;2023-09-19T13:56:20;98628.56;;;23.67;49.71
48792;BME280;34587;48.816;9.420;2023-09-19T13:58:45;98625.28;;;23.64;51.73
48792;BME280;34587;48.816;9.420;2023-09-19T14:01:10;98616.44;;;23.52;51.27
48792;BME280;34587;48.816;9.420;2023-09-19T14:03:39;98623.88;;;23.95;51.91
48792;BME280;34587;48.816;9.420;2023-09-19T14:06:04;98623.38;;;24.01;51.04
48792;BME280;34587;48.816;9.420;2023-09-19T14:08:30;98624.09;;;24.03;50.18
48792;BME280;34587;48.816;9.420;2023-09-19T14:10:55;98621.00;;;24.09;48.89
48792;BME280;34587;48.816;9.420;2023-09-19T14:13:21;98624.91;;;24.27;48.96
48792;BME280;34587;48.816;9.420;2023-09-19T14:15:46;98621.16;;;24.30;48.22
48792;BME280;34587;48.816;9.420;2023-09-19T14:18:11;98620.03;;;23.99;48.99
48792;BME280;34587;48.816;9.420;2023-09-19T14:20:38;98614.03;;;23.73;49.19
48792;BME280;34587;48.816;9.420;2023-09-19T14:23:07;98621.88;;;23.74;49.20
48792;BME280;34587;48.816;9.420;2023-09-19T14:25:34;98607.06;;;23.11;49.44
48792;BME280;34587;48.816;9.420;2023-09-19T14:28:00;98611.25;;;23.26;52.15
48792;BME280;34587;48.816;9.420;2023-09-19T14:30:25;98607.88;;;23.24;51.62
48792;BME280;34587;48.816;9.420;2023-09-19T14:32:51;98612.03;;;23.40;51.26
48792;BME280;34587;48.816;9.420;2023-09-19T14:35:16;98605.53;;;23.32;51.97
48792;BME280;34587;48.816;9.420;2023-09-19T14:37:42;98606.63;;;23.17;50.98
48792;BME280;34587;48.816;9.420;2023-09-19T14:40:08;98602.00;;;23.08;50.78
48792;BME280;34587;48.816;9.420;2023-09-19T14:42:38;98602.66;;;22.99;51.60
48792;BME280;34587;48.816;9.420;2023-09-19T14:45:04;98604.59;;;22.97;50.36
48792;BME280;34587;48.816;9.420;2023-09-19T14:47:30;98606.38;;;22.83;51.07
48792;BME280;34587;48.816;9.420;2023-09-19T14:49:59;98603.94;;;22.80;51.48
48792;BME280;34587;48.816;9.420;2023-09-19T14:52:24;98592.41;;;22.81;51.19
48792;BME280;34587;48.816;9.420;2023-09-19T14:54:52;98591.88;;;23.02;51.96
48792;BME280;34587;48.816;9.420;2023-09-19T14:57:18;98586.84;;;23.47;51.33
48792;BME280;34587;48.816;9.420;2023-09-19T14:59:44;98584.00;;;23.61;49.79
48792;BME280;34587;48.816;9.420;2023-09-19T15:02:09;98579.53;;;23.74;49.90
48792;BME280;34587;48.816;9.420;2023-09-19T15:04:34;98588.25;;;23.64;50.37
48792;BME280;34587;48.816;9.420;2023-09-19T15:07:00;98579.28;;;23.77;50.16
48792;BME280;34587;48.816;9.420;2023-09-19T15:09:25;98581.84;;;23.55;48.41
48792;BME280;34587;48.816;9.420;2023-09-19T15:11:54;98584.09;;;23.83;49.13
48792;BME280;34587;48.816;9.420;2023-09-19T15:14:20;98575.00;;;23.40;48.90
48792;BME280;34587;48.816;9.420;2023-09-19T15:16:46;98584.00;;;23.13;49.40
48792;BME280;34587;48.816;9.420;2023-09-19T15:19:11;98586.84;;;22.73;50.75
48792;BME280;34587;48.816;9.420;2023-09-19T15:21:37;98586.34;;;22.68;51.20
48792;BME280;34587;48.816;9.420;2023-09-19T15:24:02;98584.75;;;22.53;51.45
48792;BME280;34587;48.816;9.420;2023-09-19T15:26:28;98585.38;;;22.69;52.83
48792;BME280;34587;48.816;9.420;2023-09-19T15:28:55;98585.06;;;22.61;51.37
48792;BME280;34587;48.816;9.420;2023-09-19T15:31:20;98588.13;;;22.55;51.17
48792;BME280;34587;48.816;9.420;2023-09-19T15:33:46;98584.34;;;22.59;51.28
48792;BME280;34587;48.816;9.420;2023-09-19T15:36:13;98586.25;;;22.44;51.18
48792;BME280;34587;48.816;9.420;2023-09-19T15:38:58;98583.16;;;22.63;52.25
48792;BME280;34587;48.816;9.420;2023-09-19T15:43:53;98573.84;;;22.70;53.33
48792;BME280;34587;48.816;9.420;2023-09-19T15:46:20;98575.16;;;23.01;53.44
48792;BME280;34587;48.816;9.420;2023-09-19T15:48:45;98570.50;;;23.05;50.40
48792;BME280;34587;48.816;9.420;2023-09-19T15:51:11;98565.03;;;22.95;50.83
48792;BME280;34587;48.816;9.420;2023-09-19T15:53:46;98560.44;;;22.73;51.20
48792;BME280;34587;48.816;9.420;2023-09-19T15:56:15;98556.00;;;22.61;51.72
48792;BME280;34587;48.816;9.420;2023-09-19T15:58:43;98560.69;;;22.45;52.71
48792;BME280;34587;48.816;9.420;2023-09-19T16:01:09;98567.25;;;22.39;53.08
48792;BME280;34587;48.816;9.420;2023-09-19T16:03:42;98568.28;;;22.24;53.29
48792;BME280;34587;48.816;9.420;2023-09-19T16:06:13;98572.53;;;22.26;54.85
48792;BME280;34587;48.816;9.420;2023-09-19T16:08:41;98574.16;;;22.02;54.74
48792;BME280;34587;48.816;9.420;2023-09-19T16:11:08;98569.09;;;21.99;54.57
48792;BME280;34587;48.816;9.420;2023-09-19T16:13:34;98564.88;;;21.96;55.54
48792;BME280;34587;48.816;9.420;2023-09-19T16:15:59;98564.66;;;21.99;56.00
48792;BME280;34587;48.816;9.420;2023-09-19T16:18:25;98562.97;;;21.98;55.77
48792;BME280;34587;48.816;9.420;2023-09-19T16:20:50;98569.59;;;21.78;55.68
48792;BME280;34587;48.816;9.420;2023-09-19T16:23:15;98562.53;;;21.66;57.71
48792;BME280;34587;48.816;9.420;2023-09-19T16:25:41;98569.47;;;21.67;56.76
48792;BME280;34587;48.816;9.420;2023-09-19T16:28:06;98574.00;;;21.65;58.34
48792;BME280;34587;48.816;9.420;2023-09-19T16:30:32;98573.69;;;21.57;58.91
48792;BME280;34587;48.816;9.420;2023-09-19T16:32:59;98567.66;;;21.55;58.63
48792;BME280;34587;48.816;9.420;2023-09-19T16:35:24;98569.09;;;21.46;58.89
48792;BME280;34587;48.816;9.420;2023-09-19T16:37:50;98566.44;;;21.34;60.36
48792;BME280;34587;48.816;9.420;2023-09-19T16:40:15;98562.00;;;21.34;60.79
48792;BME280;34587;48.816;9.420;2023-09-19T16:42:40;98567.34;;;21.47;60.21
48792;BME280;34587;48.816;9.420;2023-09-19T16:45:08;98559.41;;;21.47;60.05
48792;BME280;34587;48.816;9.420;2023-09-19T16:47:35;98559.91;;;21.39;60.79
48792;BME280;34587;48.816;9.420;2023-09-19T16:50:00;98557.16;;;21.41;61.35
48792;BME280;34587;48.816;9.420;2023-09-19T16:52:26;98559.81;;;21.41;61.07
48792;BME280;34587;48.816;9.420;2023-09-19T16:54:51;98564.03;;;21.43;61.91
48792;BME280;34587;48.816;9.420;2023-09-19T16:57:17;98559.75;;;21.28;61.55
48792;BME280;34587;48.816;9.420;2023-09-19T16:59:42;98559.72;;;21.01;64.39
48792;BME280;34587;48.816;9.420;2023-09-19T17:02:07;98560.78;;;20.98;66.76
48792;BME280;34587;48.816;9.420;2023-09-19T17:04:33;98567.84;;;20.84;70.76
48792;BME280;34587;48.816;9.420;2023-09-19T17:06:58;98562.41;;;20.72;71.48
48792;BME280;34587;48.816;9.420;2023-09-19T17:09:24;98567.66;;;20.29;77.55
48792;BME280;34587;48.816;9.420;2023-09-19T17:11:49;98578.53;;;19.95;78.16
48792;BME280;34587;48.816;9.420;2023-09-19T17:14:15;98571.34;;;19.68;82.97
48792;BME280;34587;48.816;9.420;2023-09-19T17:16:40;98566.59;;;19.43;86.74
48792;BME280;34587;48.816;9.420;2023-09-19T17:19:06;98568.00;;;19.35;89.29
48792;BME280;34587;48.816;9.420;2023-09-19T17:21:34;98570.88;;;19.14;90.27
48792;BME280;34587;48.816;9.420;2023-09-19T17:23:59;98577.84;;;18.99;92.17
48792;BME280;34587;48.816;9.420;2023-09-19T17:26:25;98576.41;;;18.94;94.93
48792;BME280;34587;48.816;9.420;2023-09-19T17:28:52;98566.50;;;18.83;95.24
48792;BME280;34587;48.816;9.420;2023-09-19T17:31:19;98570.31;;;18.78;96.83
48792;BME280;34587;48.816;9.420;2023-09-19T17:33:47;98575.34;;;18.65;99.30
48792;BME280;34587;48.816;9.420;2023-09-19T17:36:19;98576.41;;;18.45;100.00
48792;BME280;34587;48.816;9.420;2023-09-19T17:38:50;98583.69;;;18.40;100.00
48792;BME280;34587;48.816;9.420;2023-09-19T17:41:16;98585.84;;;18.32;100.00
48792;BME280;34587;48.816;9.420;2023-09-19T17:43:45;98577.38;;;18.27;100.00
48792;BME280;34587;48.816;9.420;2023-09-19T17:46:15;98580.50;;;18.17;100.00
48792;BME280;34587;48.816;9.420;2023-09-19T17:48:46;98579.88;;;18.12;100.00
48792;BME280;34587;48.816;9.420;2023-09-19T17:51:12;98583.84;;;18.04;100.00
48792;BME280;34587;48.816;9.420;2023-09-19T17:53:39;98584.94;;;18.00;100.00
48792;BME280;34587;48.816;9.420;2023-09-19T17:56:05;98588.72;;;17.94;100.00
48792;BME280;34587;48.816;9.420;2023-09-19T17:58:34;98587.94;;;17.92;100.00